QAK4889 MMTJ-MMSD
Flight info
| Callsign | QAK4889 |
|---|---|
| Flight time | 2h 18m |
| Altitude | 41000 |
| Route | SIDGA1B SIDGA UT6 IMUSU UT25 LTO/N0306F170 V4 ENEKO ENEKO1A |
| Aircraft | CL60/M-SBDE1E2E3FGHIJ1J4J5J7M3RWXYZ/LB1V1D1 |
Departure
| Time | 2026-04-25 18:28 |
|---|---|
| Airport | General Abelardo L. Rodriguez International Airport (MMTJ) |
Arrival
| Time | 2026-04-25 20:46 |
|---|---|
| Airport | Los Cabos International Airport (MMSD) |
| Time | Latitude | Longitude | Altitude | Speed | Heading |
|---|---|---|---|---|---|
| 2026-04-25 18:20 | 32.54518 | -116.98021 | 477 ft | 0 kts | 10° |
| 2026-04-25 18:23 | 32.54523 | -116.98019 | 477 ft | 2 kts | 12° |
| 2026-04-25 18:24 | 32.54516 | -116.98006 | 477 ft | 5 kts | 180° |
| 2026-04-25 18:24 | 32.54472 | -116.98013 | 478 ft | 7 kts | 190° |
| 2026-04-25 18:24 | 32.54410 | -116.98016 | 478 ft | 9 kts | 135° |
| 2026-04-25 18:24 | 32.54396 | -116.97926 | 477 ft | 13 kts | 100° |
| 2026-04-25 18:25 | 32.54374 | -116.97766 | 473 ft | 26 kts | 98° |
| 2026-04-25 18:25 | 32.54340 | -116.97506 | 468 ft | 21 kts | 99° |
| 2026-04-25 18:25 | 32.54312 | -116.97299 | 466 ft | 25 kts | 98° |
| 2026-04-25 18:25 | 32.54282 | -116.97075 | 466 ft | 28 kts | 99° |
| 2026-04-25 18:26 | 32.54253 | -116.96850 | 468 ft | 23 kts | 98° |
| 2026-04-25 18:26 | 32.54225 | -116.96647 | 471 ft | 24 kts | 99° |
| 2026-04-25 18:26 | 32.54197 | -116.96435 | 474 ft | 25 kts | 99° |
| 2026-04-25 18:26 | 32.54169 | -116.96219 | 477 ft | 25 kts | 98° |
| 2026-04-25 18:27 | 32.54104 | -116.96154 | 477 ft | 11 kts | 191° |
| 2026-04-25 18:27 | 32.54008 | -116.96191 | 476 ft | 17 kts | 236° |
| 2026-04-25 18:27 | 32.54031 | -116.96429 | 474 ft | 72 kts | 278° |
| 2026-04-25 18:27 | 32.54165 | -116.97441 | 468 ft | 152 kts | 278° |
| 2026-04-25 18:28 | 32.54363 | -116.98932 | 1053 ft | 185 kts | 277° |
| 2026-04-25 18:28 | 32.54179 | -117.00596 | 2143 ft | 208 kts | 248° |
| 2026-04-25 18:28 | 32.53290 | -117.02188 | 2822 ft | 235 kts | 234° |
| 2026-04-25 18:29 | 32.50994 | -117.05022 | 5470 ft | 246 kts | 202° |
| 2026-04-25 18:29 | 32.49283 | -117.05273 | 6971 ft | 251 kts | 176° |
| 2026-04-25 18:30 | 32.45490 | -117.00804 | 10306 ft | 289 kts | 126° |
| 2026-04-25 18:30 | 32.44427 | -116.98737 | 11593 ft | 291 kts | 127° |
| 2026-04-25 18:30 | 32.43376 | -116.96697 | 12777 ft | 294 kts | 128° |
| 2026-04-25 18:30 | 32.42298 | -116.94613 | 13901 ft | 298 kts | 129° |
| 2026-04-25 18:31 | 32.41202 | -116.92499 | 14923 ft | 304 kts | 129° |
| 2026-04-25 18:31 | 32.40062 | -116.90313 | 15758 ft | 316 kts | 129° |
| 2026-04-25 18:31 | 32.38863 | -116.88024 | 16352 ft | 335 kts | 128° |
| 2026-04-25 18:31 | 32.37598 | -116.85605 | 17155 ft | 346 kts | 128° |
| 2026-04-25 18:32 | 32.36317 | -116.83150 | 18105 ft | 349 kts | 128° |
| 2026-04-25 18:32 | 32.35053 | -116.80722 | 19318 ft | 342 kts | 128° |
| 2026-04-25 18:32 | 32.33825 | -116.78363 | 20545 ft | 333 kts | 129° |
| 2026-04-25 18:32 | 32.32628 | -116.76067 | 21694 ft | 324 kts | 129° |
| 2026-04-25 18:33 | 32.31428 | -116.73776 | 22668 ft | 321 kts | 130° |
| 2026-04-25 18:33 | 32.30245 | -116.71521 | 23531 ft | 321 kts | 131° |
| 2026-04-25 18:33 | 32.29044 | -116.69239 | 24329 ft | 323 kts | 131° |
| 2026-04-25 18:33 | 32.27836 | -116.66945 | 25118 ft | 324 kts | 131° |
| 2026-04-25 18:34 | 32.26615 | -116.64627 | 25895 ft | 325 kts | 132° |
| 2026-04-25 18:34 | 32.25829 | -116.63138 | 26373 ft | 326 kts | 132° |
| 2026-04-25 18:34 | 32.24618 | -116.60845 | 27085 ft | 328 kts | 133° |
| 2026-04-25 18:34 | 32.23450 | -116.58631 | 27739 ft | 329 kts | 133° |
| 2026-04-25 18:35 | 32.22243 | -116.56349 | 28375 ft | 330 kts | 133° |
| 2026-04-25 18:35 | 32.21051 | -116.54092 | 29015 ft | 330 kts | 134° |
| 2026-04-25 18:35 | 32.19704 | -116.52005 | 29591 ft | 313 kts | 151° |
| 2026-04-25 18:35 | 32.18080 | -116.50526 | 30142 ft | 298 kts | 162° |
| 2026-04-25 18:36 | 32.16384 | -116.49228 | 30800 ft | 293 kts | 163° |
| 2026-04-25 18:36 | 32.14763 | -116.48001 | 31356 ft | 291 kts | 163° |
| 2026-04-25 18:36 | 32.13071 | -116.46725 | 31810 ft | 293 kts | 164° |
| 2026-04-25 18:36 | 32.11362 | -116.45450 | 32020 ft | 304 kts | 163° |
| 2026-04-25 18:37 | 32.09606 | -116.44136 | 32294 ft | 313 kts | 163° |
| 2026-04-25 18:37 | 32.07742 | -116.42733 | 32680 ft | 317 kts | 163° |
| 2026-04-25 18:37 | 32.05932 | -116.41364 | 33162 ft | 317 kts | 163° |
| 2026-04-25 18:37 | 32.04131 | -116.39999 | 33708 ft | 314 kts | 163° |
| 2026-04-25 18:38 | 32.02293 | -116.38605 | 34294 ft | 311 kts | 163° |
| 2026-04-25 18:38 | 32.00424 | -116.37193 | 34788 ft | 310 kts | 164° |
| 2026-04-25 18:38 | 31.98601 | -116.35817 | 35189 ft | 311 kts | 164° |
| 2026-04-25 18:38 | 31.96770 | -116.34436 | 35612 ft | 311 kts | 164° |
| 2026-04-25 18:39 | 31.94969 | -116.33073 | 36095 ft | 307 kts | 165° |
| 2026-04-25 18:39 | 31.93179 | -116.31722 | 36446 ft | 307 kts | 165° |
| 2026-04-25 18:39 | 31.91357 | -116.30352 | 36717 ft | 309 kts | 165° |
| 2026-04-25 18:39 | 31.89546 | -116.28989 | 37050 ft | 308 kts | 164° |
| 2026-04-25 18:40 | 31.87831 | -116.27696 | 37382 ft | 307 kts | 165° |
| 2026-04-25 18:40 | 31.86033 | -116.26344 | 37653 ft | 308 kts | 165° |
| 2026-04-25 18:40 | 31.84226 | -116.24983 | 37983 ft | 307 kts | 165° |
| 2026-04-25 18:40 | 31.82407 | -116.23616 | 38244 ft | 308 kts | 165° |
| 2026-04-25 18:41 | 31.80623 | -116.22276 | 38517 ft | 308 kts | 165° |
| 2026-04-25 18:41 | 31.78807 | -116.20910 | 38834 ft | 305 kts | 165° |
| 2026-04-25 18:41 | 31.77031 | -116.19572 | 39004 ft | 304 kts | 165° |
| 2026-04-25 18:41 | 31.75294 | -116.18260 | 38973 ft | 293 kts | 166° |
| 2026-04-25 18:42 | 31.73647 | -116.16908 | 38986 ft | 286 kts | 162° |
| 2026-04-25 18:42 | 31.73128 | -116.16441 | 38987 ft | 284 kts | 161° |
| 2026-04-25 18:42 | 31.70509 | -116.14100 | 39011 ft | 285 kts | 162° |
| 2026-04-25 18:42 | 31.68928 | -116.12699 | 39015 ft | 288 kts | 162° |
| 2026-04-25 18:43 | 31.67321 | -116.11274 | 39017 ft | 292 kts | 162° |
| 2026-04-25 18:43 | 31.65684 | -116.09821 | 39033 ft | 294 kts | 162° |
| 2026-04-25 18:43 | 31.64062 | -116.08379 | 39010 ft | 296 kts | 161° |
| 2026-04-25 18:43 | 31.62424 | -116.06920 | 39024 ft | 295 kts | 162° |
| 2026-04-25 18:44 | 31.60796 | -116.05470 | 39013 ft | 295 kts | 162° |
| 2026-04-25 18:44 | 31.59162 | -116.04015 | 39015 ft | 294 kts | 162° |
| 2026-04-25 18:44 | 31.57547 | -116.02578 | 39025 ft | 293 kts | 162° |
| 2026-04-25 18:44 | 31.55912 | -116.01125 | 39019 ft | 292 kts | 162° |
| 2026-04-25 18:45 | 31.54309 | -115.99700 | 39024 ft | 292 kts | 162° |
| 2026-04-25 18:45 | 31.52678 | -115.98254 | 39019 ft | 293 kts | 162° |
| 2026-04-25 18:45 | 31.51048 | -115.96807 | 39019 ft | 293 kts | 162° |
| 2026-04-25 18:45 | 31.49440 | -115.95382 | 39007 ft | 293 kts | 162° |
| 2026-04-25 18:46 | 31.47810 | -115.93937 | 39016 ft | 293 kts | 162° |
| 2026-04-25 18:46 | 31.46188 | -115.92500 | 39004 ft | 294 kts | 162° |
| 2026-04-25 18:46 | 31.44547 | -115.91048 | 39014 ft | 294 kts | 162° |
| 2026-04-25 18:46 | 31.42927 | -115.89614 | 39009 ft | 294 kts | 163° |
| 2026-04-25 18:47 | 31.41284 | -115.88160 | 39020 ft | 294 kts | 162° |
| 2026-04-25 18:47 | 31.39645 | -115.86712 | 38998 ft | 295 kts | 162° |
| 2026-04-25 18:47 | 31.38032 | -115.85285 | 38992 ft | 295 kts | 162° |
| 2026-04-25 18:47 | 31.36391 | -115.83834 | 38983 ft | 295 kts | 162° |
| 2026-04-25 18:48 | 31.34747 | -115.82382 | 38987 ft | 294 kts | 162° |
| 2026-04-25 18:48 | 31.33119 | -115.80944 | 38990 ft | 295 kts | 162° |
| 2026-04-25 18:48 | 31.31471 | -115.79491 | 38990 ft | 296 kts | 163° |
| 2026-04-25 18:48 | 31.29826 | -115.78041 | 38989 ft | 296 kts | 162° |
| 2026-04-25 18:49 | 31.28192 | -115.76600 | 38999 ft | 296 kts | 163° |
| 2026-04-25 18:49 | 31.26543 | -115.75146 | 38999 ft | 296 kts | 163° |
| 2026-04-25 18:49 | 31.24913 | -115.73710 | 38999 ft | 296 kts | 162° |
| 2026-04-25 18:49 | 31.23258 | -115.72252 | 39009 ft | 296 kts | 163° |
| 2026-04-25 18:50 | 31.21613 | -115.70804 | 39000 ft | 296 kts | 163° |
| 2026-04-25 18:50 | 31.19969 | -115.69358 | 38999 ft | 296 kts | 162° |
| 2026-04-25 18:50 | 31.18326 | -115.67911 | 39009 ft | 296 kts | 163° |
| 2026-04-25 18:50 | 31.16691 | -115.66476 | 38997 ft | 296 kts | 163° |
| 2026-04-25 18:51 | 31.15040 | -115.65024 | 39007 ft | 295 kts | 163° |
| 2026-04-25 18:51 | 31.13955 | -115.64072 | 39018 ft | 296 kts | 163° |
| 2026-04-25 18:51 | 31.11742 | -115.62133 | 39032 ft | 298 kts | 163° |
| 2026-04-25 18:51 | 31.10084 | -115.60680 | 39046 ft | 300 kts | 163° |
| 2026-04-25 18:52 | 31.06725 | -115.57739 | 39060 ft | 303 kts | 162° |
| 2026-04-25 18:52 | 31.03356 | -115.54786 | 39090 ft | 303 kts | 162° |
| 2026-04-25 18:53 | 31.00008 | -115.51854 | 39117 ft | 302 kts | 162° |
| 2026-04-25 18:53 | 30.96633 | -115.48900 | 39119 ft | 302 kts | 162° |
| 2026-04-25 18:54 | 30.91622 | -115.44521 | 39051 ft | 301 kts | 163° |
| 2026-04-25 18:55 | 30.88271 | -115.41599 | 39041 ft | 302 kts | 162° |
| 2026-04-25 18:55 | 30.84896 | -115.38658 | 39022 ft | 302 kts | 162° |
| 2026-04-25 18:56 | 30.81547 | -115.35740 | 39009 ft | 302 kts | 162° |
| 2026-04-25 18:56 | 30.78214 | -115.32696 | 39011 ft | 304 kts | 161° |
| 2026-04-25 18:57 | 30.74910 | -115.29639 | 39029 ft | 304 kts | 162° |
| 2026-04-25 18:57 | 30.71607 | -115.26589 | 39046 ft | 305 kts | 161° |
| 2026-04-25 18:58 | 30.68285 | -115.23521 | 39036 ft | 306 kts | 161° |
| 2026-04-25 18:58 | 30.63273 | -115.18903 | 39013 ft | 308 kts | 161° |
| 2026-04-25 18:59 | 30.56582 | -115.12736 | 38970 ft | 305 kts | 161° |
| 2026-04-25 19:00 | 30.51611 | -115.08168 | 38969 ft | 306 kts | 161° |
| 2026-04-25 19:01 | 30.46599 | -115.03568 | 38973 ft | 308 kts | 161° |
| 2026-04-25 19:01 | 30.43217 | -115.00468 | 38975 ft | 308 kts | 161° |
| 2026-04-25 19:02 | 30.38191 | -114.95863 | 38947 ft | 308 kts | 161° |
| 2026-04-25 19:03 | 30.34289 | -114.92292 | 38966 ft | 307 kts | 161° |
| 2026-04-25 19:03 | 30.29779 | -114.88176 | 38961 ft | 311 kts | 161° |
| 2026-04-25 19:04 | 30.24704 | -114.83542 | 38962 ft | 311 kts | 161° |
| 2026-04-25 19:05 | 30.17919 | -114.77357 | 38961 ft | 310 kts | 160° |
| 2026-04-25 19:06 | 30.14521 | -114.74265 | 38956 ft | 310 kts | 161° |
| 2026-04-25 19:06 | 30.09423 | -114.69634 | 38940 ft | 313 kts | 161° |
| 2026-04-25 19:07 | 30.04286 | -114.64970 | 38944 ft | 313 kts | 160° |
| 2026-04-25 19:08 | 29.99140 | -114.60307 | 38928 ft | 314 kts | 160° |
| 2026-04-25 19:09 | 29.92872 | -114.54630 | 38918 ft | 312 kts | 160° |
| 2026-04-25 19:10 | 29.87176 | -114.49483 | 38938 ft | 314 kts | 160° |
| 2026-04-25 19:10 | 29.83742 | -114.46384 | 38954 ft | 313 kts | 160° |
| 2026-04-25 19:11 | 29.80311 | -114.43289 | 38937 ft | 314 kts | 160° |
| 2026-04-25 19:11 | 29.76859 | -114.40179 | 38940 ft | 314 kts | 160° |
| 2026-04-25 19:12 | 29.73425 | -114.37088 | 38910 ft | 314 kts | 160° |
| 2026-04-25 19:12 | 29.69978 | -114.33988 | 38929 ft | 315 kts | 160° |
| 2026-04-25 19:13 | 29.66538 | -114.30898 | 38912 ft | 315 kts | 161° |
| 2026-04-25 19:13 | 29.63107 | -114.27815 | 38916 ft | 314 kts | 160° |
| 2026-04-25 19:14 | 29.59654 | -114.24719 | 38928 ft | 314 kts | 160° |
| 2026-04-25 19:14 | 29.56213 | -114.21635 | 38937 ft | 313 kts | 161° |
| 2026-04-25 19:15 | 29.52786 | -114.18568 | 38957 ft | 314 kts | 160° |
| 2026-04-25 19:15 | 29.49337 | -114.15481 | 38946 ft | 313 kts | 161° |
| 2026-04-25 19:16 | 29.45908 | -114.12416 | 38945 ft | 314 kts | 160° |
| 2026-04-25 19:16 | 29.42463 | -114.09345 | 38957 ft | 316 kts | 160° |
| 2026-04-25 19:17 | 29.38987 | -114.06244 | 38968 ft | 316 kts | 160° |
| 2026-04-25 19:17 | 29.35529 | -114.03159 | 38954 ft | 315 kts | 160° |
| 2026-04-25 19:18 | 29.32074 | -114.00079 | 38977 ft | 314 kts | 160° |
| 2026-04-25 19:18 | 29.28616 | -113.97006 | 38995 ft | 315 kts | 160° |
| 2026-04-25 19:19 | 29.25155 | -113.93931 | 38983 ft | 316 kts | 160° |
| 2026-04-25 19:19 | 29.21674 | -113.90838 | 39002 ft | 316 kts | 160° |
| 2026-04-25 19:20 | 29.18210 | -113.87763 | 38983 ft | 316 kts | 159° |
| 2026-04-25 19:20 | 29.14733 | -113.84682 | 38977 ft | 317 kts | 159° |
| 2026-04-25 19:21 | 29.11256 | -113.81602 | 38966 ft | 318 kts | 159° |
| 2026-04-25 19:21 | 29.06019 | -113.76967 | 38972 ft | 317 kts | 159° |
| 2026-04-25 19:22 | 29.02520 | -113.73873 | 38967 ft | 316 kts | 159° |
| 2026-04-25 19:23 | 28.97302 | -113.69265 | 38951 ft | 315 kts | 159° |
| 2026-04-25 19:23 | 28.92109 | -113.64688 | 38968 ft | 316 kts | 159° |
| 2026-04-25 19:24 | 28.88588 | -113.61589 | 38960 ft | 317 kts | 159° |
| 2026-04-25 19:25 | 28.81610 | -113.55452 | 38926 ft | 319 kts | 159° |
| 2026-04-25 19:25 | 28.78100 | -113.52368 | 38942 ft | 319 kts | 158° |
| 2026-04-25 19:26 | 28.74572 | -113.49273 | 38934 ft | 320 kts | 158° |
| 2026-04-25 19:26 | 28.71055 | -113.46188 | 38937 ft | 319 kts | 158° |
| 2026-04-25 19:27 | 28.68130 | -113.43623 | 38940 ft | 318 kts | 159° |
| 2026-04-25 19:27 | 28.64048 | -113.40050 | 38962 ft | 319 kts | 158° |
| 2026-04-25 19:28 | 28.60533 | -113.36976 | 38951 ft | 318 kts | 158° |
| 2026-04-25 19:28 | 28.57028 | -113.33913 | 38944 ft | 318 kts | 159° |
| 2026-04-25 19:29 | 28.53512 | -113.30842 | 38930 ft | 317 kts | 159° |
| 2026-04-25 19:29 | 28.50029 | -113.27803 | 38937 ft | 317 kts | 159° |
| 2026-04-25 19:30 | 28.46515 | -113.24742 | 38942 ft | 317 kts | 158° |
| 2026-04-25 19:30 | 28.43017 | -113.21697 | 38952 ft | 318 kts | 158° |
| 2026-04-25 19:31 | 28.39521 | -113.18654 | 38956 ft | 317 kts | 158° |
| 2026-04-25 19:31 | 28.36018 | -113.15609 | 38953 ft | 317 kts | 158° |
| 2026-04-25 19:32 | 28.32513 | -113.12566 | 38969 ft | 318 kts | 158° |
| 2026-04-25 19:32 | 28.30185 | -113.10545 | 38969 ft | 318 kts | 158° |
| 2026-04-25 19:33 | 28.25498 | -113.06482 | 38973 ft | 319 kts | 158° |
| 2026-04-25 19:33 | 28.21969 | -113.03424 | 38978 ft | 319 kts | 158° |
| 2026-04-25 19:34 | 28.18466 | -113.00391 | 38963 ft | 318 kts | 158° |
| 2026-04-25 19:34 | 28.14962 | -112.97359 | 38973 ft | 317 kts | 158° |
| 2026-04-25 19:35 | 28.11457 | -112.94331 | 38972 ft | 317 kts | 158° |
| 2026-04-25 19:35 | 28.07938 | -112.91293 | 38959 ft | 317 kts | 158° |
| 2026-04-25 19:36 | 28.04435 | -112.88271 | 38970 ft | 317 kts | 158° |
| 2026-04-25 19:36 | 28.00908 | -112.85232 | 38971 ft | 318 kts | 157° |
| 2026-04-25 19:37 | 27.97398 | -112.82207 | 38953 ft | 317 kts | 158° |
| 2026-04-25 19:37 | 27.93887 | -112.79186 | 38934 ft | 317 kts | 157° |
| 2026-04-25 19:38 | 27.90387 | -112.76177 | 38933 ft | 317 kts | 158° |
| 2026-04-25 19:38 | 27.86867 | -112.73152 | 38932 ft | 316 kts | 157° |
| 2026-04-25 19:39 | 27.83346 | -112.70130 | 38930 ft | 317 kts | 157° |
| 2026-04-25 19:39 | 27.79836 | -112.67120 | 38918 ft | 317 kts | 157° |
| 2026-04-25 19:40 | 27.76332 | -112.64118 | 38916 ft | 318 kts | 157° |
| 2026-04-25 19:40 | 27.72810 | -112.61104 | 38914 ft | 319 kts | 157° |
| 2026-04-25 19:41 | 27.69275 | -112.58079 | 38932 ft | 319 kts | 156° |
| 2026-04-25 19:41 | 27.66898 | -112.56046 | 38935 ft | 319 kts | 157° |
| 2026-04-25 19:42 | 27.62206 | -112.52038 | 38937 ft | 319 kts | 156° |
| 2026-04-25 19:42 | 27.58657 | -112.49009 | 38940 ft | 319 kts | 156° |
| 2026-04-25 19:43 | 27.55123 | -112.45997 | 38949 ft | 319 kts | 156° |
| 2026-04-25 19:43 | 27.51585 | -112.42982 | 38950 ft | 319 kts | 156° |
| 2026-04-25 19:44 | 27.48040 | -112.39964 | 38942 ft | 320 kts | 156° |
| 2026-04-25 19:44 | 27.44490 | -112.36945 | 38935 ft | 320 kts | 156° |
| 2026-04-25 19:45 | 27.40943 | -112.33929 | 38927 ft | 319 kts | 157° |
| 2026-04-25 19:45 | 27.37402 | -112.30921 | 38925 ft | 318 kts | 157° |
| 2026-04-25 19:46 | 27.33865 | -112.27921 | 38914 ft | 318 kts | 157° |
| 2026-04-25 19:46 | 27.30238 | -112.25211 | 38912 ft | 310 kts | 163° |
| 2026-04-25 19:47 | 27.26545 | -112.22666 | 38912 ft | 311 kts | 163° |
| 2026-04-25 19:47 | 27.22871 | -112.20134 | 38910 ft | 312 kts | 163° |
| 2026-04-25 19:48 | 27.19163 | -112.17578 | 38915 ft | 313 kts | 163° |
| 2026-04-25 19:48 | 27.15459 | -112.15025 | 38907 ft | 313 kts | 163° |
| 2026-04-25 19:49 | 27.12983 | -112.13319 | 38914 ft | 313 kts | 163° |
| 2026-04-25 19:49 | 27.08008 | -112.09892 | 38914 ft | 313 kts | 162° |
| 2026-04-25 19:50 | 27.02434 | -112.06056 | 38919 ft | 313 kts | 163° |
| 2026-04-25 19:51 | 26.98741 | -112.03517 | 38905 ft | 314 kts | 163° |
| 2026-04-25 19:51 | 26.95004 | -112.00950 | 38889 ft | 314 kts | 162° |
| 2026-04-25 19:52 | 26.91289 | -111.98399 | 38904 ft | 314 kts | 162° |
| 2026-04-25 19:52 | 26.87526 | -111.95818 | 38902 ft | 316 kts | 162° |
| 2026-04-25 19:53 | 26.83785 | -111.93253 | 38914 ft | 316 kts | 163° |
| 2026-04-25 19:53 | 26.80055 | -111.90696 | 38929 ft | 315 kts | 162° |
| 2026-04-25 19:54 | 26.76311 | -111.88133 | 38920 ft | 315 kts | 162° |
| 2026-04-25 19:54 | 26.72562 | -111.85569 | 38924 ft | 315 kts | 162° |
| 2026-04-25 19:55 | 26.68817 | -111.83009 | 38931 ft | 316 kts | 162° |
| 2026-04-25 19:55 | 26.65065 | -111.80444 | 38914 ft | 316 kts | 162° |
| 2026-04-25 19:56 | 26.61337 | -111.77895 | 38921 ft | 315 kts | 162° |
| 2026-04-25 19:56 | 26.57612 | -111.75353 | 38924 ft | 314 kts | 162° |
| 2026-04-25 19:57 | 26.53868 | -111.72800 | 38917 ft | 315 kts | 162° |
| 2026-04-25 19:57 | 26.50126 | -111.70250 | 38930 ft | 315 kts | 162° |
| 2026-04-25 19:58 | 26.46402 | -111.67715 | 38938 ft | 315 kts | 162° |
| 2026-04-25 19:58 | 26.42665 | -111.65171 | 38918 ft | 315 kts | 162° |
| 2026-04-25 19:59 | 26.38916 | -111.62621 | 38922 ft | 315 kts | 162° |
| 2026-04-25 19:59 | 26.35177 | -111.60081 | 38927 ft | 315 kts | 162° |
| 2026-04-25 20:00 | 26.31434 | -111.57540 | 38930 ft | 315 kts | 162° |
| 2026-04-25 20:00 | 26.27707 | -111.55012 | 38928 ft | 316 kts | 162° |
| 2026-04-25 20:01 | 26.22069 | -111.51190 | 38920 ft | 316 kts | 162° |
| 2026-04-25 20:01 | 26.18313 | -111.48646 | 38940 ft | 316 kts | 162° |
| 2026-04-25 20:02 | 26.14554 | -111.46103 | 38927 ft | 317 kts | 162° |
| 2026-04-25 20:02 | 26.10781 | -111.43552 | 38946 ft | 317 kts | 162° |
| 2026-04-25 20:03 | 26.07003 | -111.40999 | 38942 ft | 317 kts | 162° |
| 2026-04-25 20:03 | 26.03231 | -111.38451 | 38954 ft | 317 kts | 162° |
| 2026-04-25 20:04 | 25.99490 | -111.35923 | 38936 ft | 317 kts | 160° |
| 2026-04-25 20:04 | 25.97669 | -111.34427 | 38947 ft | 329 kts | 150° |
| 2026-04-25 20:04 | 25.96046 | -111.32611 | 38934 ft | 336 kts | 146° |
| 2026-04-25 20:05 | 25.92822 | -111.28809 | 38930 ft | 337 kts | 146° |
| 2026-04-25 20:05 | 25.89598 | -111.25020 | 38917 ft | 338 kts | 145° |
| 2026-04-25 20:06 | 25.86365 | -111.21220 | 38901 ft | 338 kts | 145° |
| 2026-04-25 20:06 | 25.83144 | -111.17438 | 38894 ft | 338 kts | 146° |
| 2026-04-25 20:07 | 25.79913 | -111.13647 | 38894 ft | 337 kts | 145° |
| 2026-04-25 20:07 | 25.76702 | -111.09885 | 38889 ft | 337 kts | 145° |
| 2026-04-25 20:08 | 25.73468 | -111.06098 | 38891 ft | 338 kts | 145° |
| 2026-04-25 20:08 | 25.70209 | -111.02286 | 38888 ft | 339 kts | 145° |
| 2026-04-25 20:09 | 25.66964 | -110.98493 | 38891 ft | 339 kts | 145° |
| 2026-04-25 20:09 | 25.63729 | -110.94715 | 38883 ft | 339 kts | 146° |
| 2026-04-25 20:10 | 25.60471 | -110.90914 | 38889 ft | 340 kts | 145° |
| 2026-04-25 20:10 | 25.57231 | -110.87136 | 38882 ft | 339 kts | 146° |
| 2026-04-25 20:11 | 25.53982 | -110.83350 | 38881 ft | 339 kts | 145° |
| 2026-04-25 20:11 | 25.50734 | -110.79571 | 38887 ft | 340 kts | 145° |
| 2026-04-25 20:12 | 25.47466 | -110.75771 | 38883 ft | 340 kts | 144° |
| 2026-04-25 20:12 | 25.45302 | -110.73257 | 38890 ft | 341 kts | 145° |
| 2026-04-25 20:13 | 25.40933 | -110.68182 | 38890 ft | 340 kts | 145° |
| 2026-04-25 20:13 | 25.37670 | -110.64398 | 38887 ft | 341 kts | 145° |
| 2026-04-25 20:14 | 25.34395 | -110.60602 | 38878 ft | 341 kts | 145° |
| 2026-04-25 20:14 | 25.31127 | -110.56818 | 38900 ft | 341 kts | 145° |
| 2026-04-25 20:15 | 25.27864 | -110.53042 | 38889 ft | 341 kts | 144° |
| 2026-04-25 20:15 | 25.24575 | -110.49238 | 38898 ft | 341 kts | 145° |
| 2026-04-25 20:16 | 25.21305 | -110.45459 | 38900 ft | 342 kts | 144° |
| 2026-04-25 20:16 | 25.18034 | -110.41682 | 38908 ft | 342 kts | 145° |
| 2026-04-25 20:17 | 25.14735 | -110.37875 | 38912 ft | 341 kts | 145° |
| 2026-04-25 20:17 | 25.11457 | -110.34096 | 38902 ft | 341 kts | 145° |
| 2026-04-25 20:18 | 25.08190 | -110.30333 | 38907 ft | 341 kts | 145° |
| 2026-04-25 20:18 | 25.04888 | -110.26533 | 38899 ft | 342 kts | 145° |
| 2026-04-25 20:19 | 25.01621 | -110.22777 | 38905 ft | 342 kts | 145° |
| 2026-04-25 20:19 | 24.98321 | -110.18985 | 38904 ft | 342 kts | 146° |
| 2026-04-25 20:20 | 24.95023 | -110.15198 | 38894 ft | 342 kts | 145° |
| 2026-04-25 20:20 | 24.91748 | -110.11443 | 38817 ft | 344 kts | 145° |
| 2026-04-25 20:21 | 24.90069 | -110.09527 | 38326 ft | 352 kts | 144° |
| 2026-04-25 20:21 | 24.88353 | -110.07560 | 37970 ft | 351 kts | 144° |
| 2026-04-25 20:21 | 24.86670 | -110.05634 | 37449 ft | 355 kts | 144° |
| 2026-04-25 20:21 | 24.84953 | -110.03670 | 37043 ft | 356 kts | 144° |
| 2026-04-25 20:22 | 24.83216 | -110.01685 | 36513 ft | 361 kts | 143° |
| 2026-04-25 20:22 | 24.82646 | -110.01033 | 36365 ft | 362 kts | 143° |
| 2026-04-25 20:22 | 24.79720 | -109.97689 | 35557 ft | 367 kts | 143° |
| 2026-04-25 20:22 | 24.77955 | -109.95673 | 35103 ft | 370 kts | 143° |
| 2026-04-25 20:23 | 24.76148 | -109.93610 | 34584 ft | 374 kts | 142° |
| 2026-04-25 20:23 | 24.74336 | -109.91542 | 34099 ft | 376 kts | 142° |
| 2026-04-25 20:23 | 24.72516 | -109.89465 | 33592 ft | 379 kts | 142° |
| 2026-04-25 20:23 | 24.70684 | -109.87375 | 33091 ft | 382 kts | 142° |
| 2026-04-25 20:24 | 24.68847 | -109.85281 | 32585 ft | 386 kts | 141° |
| 2026-04-25 20:24 | 24.66961 | -109.83132 | 32062 ft | 390 kts | 141° |
| 2026-04-25 20:24 | 24.65087 | -109.80997 | 31543 ft | 393 kts | 141° |
| 2026-04-25 20:24 | 24.63201 | -109.78850 | 31027 ft | 395 kts | 140° |
| 2026-04-25 20:25 | 24.61275 | -109.76657 | 30490 ft | 396 kts | 140° |
| 2026-04-25 20:25 | 24.59375 | -109.74494 | 29969 ft | 398 kts | 140° |
| 2026-04-25 20:25 | 24.57460 | -109.72316 | 29442 ft | 399 kts | 140° |
| 2026-04-25 20:25 | 24.55516 | -109.70105 | 28906 ft | 399 kts | 140° |
| 2026-04-25 20:26 | 24.53589 | -109.67915 | 28380 ft | 399 kts | 139° |
| 2026-04-25 20:26 | 24.51671 | -109.65736 | 27853 ft | 399 kts | 139° |
| 2026-04-25 20:26 | 24.49745 | -109.63549 | 27325 ft | 399 kts | 139° |
| 2026-04-25 20:26 | 24.47826 | -109.61372 | 26795 ft | 398 kts | 139° |
| 2026-04-25 20:27 | 24.45903 | -109.59190 | 26270 ft | 397 kts | 139° |
| 2026-04-25 20:27 | 24.43983 | -109.57012 | 25788 ft | 395 kts | 139° |
| 2026-04-25 20:27 | 24.42078 | -109.54855 | 25244 ft | 394 kts | 139° |
| 2026-04-25 20:27 | 24.40170 | -109.52694 | 24734 ft | 392 kts | 139° |
| 2026-04-25 20:28 | 24.38278 | -109.50551 | 24207 ft | 391 kts | 139° |
| 2026-04-25 20:28 | 24.36393 | -109.48418 | 23690 ft | 389 kts | 138° |
| 2026-04-25 20:28 | 24.34512 | -109.46315 | 23178 ft | 386 kts | 141° |
| 2026-04-25 20:28 | 24.32382 | -109.44643 | 22645 ft | 374 kts | 158° |
| 2026-04-25 20:29 | 24.29955 | -109.43747 | 22123 ft | 362 kts | 175° |
| 2026-04-25 20:29 | 24.27496 | -109.43647 | 21586 ft | 352 kts | 190° |
| 2026-04-25 20:29 | 24.25122 | -109.44157 | 21081 ft | 345 kts | 197° |
| 2026-04-25 20:29 | 24.22795 | -109.44756 | 20659 ft | 340 kts | 197° |
| 2026-04-25 20:30 | 24.20521 | -109.45335 | 20234 ft | 335 kts | 197° |
| 2026-04-25 20:30 | 24.18231 | -109.45918 | 19802 ft | 331 kts | 197° |
| 2026-04-25 20:30 | 24.15999 | -109.46485 | 19382 ft | 327 kts | 197° |
| 2026-04-25 20:30 | 24.13794 | -109.47047 | 18946 ft | 324 kts | 196° |
| 2026-04-25 20:31 | 24.11620 | -109.47600 | 18465 ft | 319 kts | 196° |
| 2026-04-25 20:31 | 24.09492 | -109.48141 | 18095 ft | 314 kts | 196° |
| 2026-04-25 20:31 | 24.07369 | -109.48682 | 17627 ft | 313 kts | 196° |
| 2026-04-25 20:31 | 24.05229 | -109.49227 | 17216 ft | 310 kts | 195° |
| 2026-04-25 20:32 | 24.03152 | -109.49757 | 16807 ft | 309 kts | 196° |
| 2026-04-25 20:32 | 24.01046 | -109.50292 | 16395 ft | 307 kts | 195° |
| 2026-04-25 20:32 | 23.98972 | -109.50821 | 15978 ft | 305 kts | 195° |
| 2026-04-25 20:32 | 23.96923 | -109.51342 | 15578 ft | 304 kts | 195° |
| 2026-04-25 20:33 | 23.94862 | -109.51866 | 15166 ft | 302 kts | 195° |
| 2026-04-25 20:33 | 23.92809 | -109.52389 | 14757 ft | 301 kts | 195° |
| 2026-04-25 20:33 | 23.90779 | -109.52932 | 14391 ft | 298 kts | 198° |
| 2026-04-25 20:33 | 23.89476 | -109.53384 | 14119 ft | 298 kts | 201° |
| 2026-04-25 20:34 | 23.86850 | -109.54359 | 13605 ft | 295 kts | 201° |
| 2026-04-25 20:34 | 23.84903 | -109.55079 | 13233 ft | 294 kts | 201° |
| 2026-04-25 20:34 | 23.82975 | -109.55791 | 12842 ft | 293 kts | 201° |
| 2026-04-25 20:34 | 23.81048 | -109.56503 | 12453 ft | 292 kts | 200° |
| 2026-04-25 20:35 | 23.79112 | -109.57218 | 12055 ft | 291 kts | 200° |
| 2026-04-25 20:35 | 23.77212 | -109.57919 | 11680 ft | 289 kts | 201° |
| 2026-04-25 20:35 | 23.75299 | -109.58626 | 11296 ft | 288 kts | 201° |
| 2026-04-25 20:35 | 23.73400 | -109.59326 | 10912 ft | 287 kts | 201° |
| 2026-04-25 20:36 | 23.71495 | -109.60029 | 10529 ft | 285 kts | 201° |
| 2026-04-25 20:36 | 23.69628 | -109.60718 | 10156 ft | 284 kts | 200° |
| 2026-04-25 20:36 | 23.67750 | -109.61410 | 9788 ft | 282 kts | 201° |
| 2026-04-25 20:36 | 23.65882 | -109.62099 | 9405 ft | 281 kts | 201° |
| 2026-04-25 20:37 | 23.64031 | -109.62781 | 9018 ft | 279 kts | 200° |
| 2026-04-25 20:37 | 23.62193 | -109.63457 | 8680 ft | 276 kts | 201° |
| 2026-04-25 20:37 | 23.60383 | -109.64124 | 8300 ft | 276 kts | 201° |
| 2026-04-25 20:37 | 23.58565 | -109.64793 | 7936 ft | 274 kts | 200° |
| 2026-04-25 20:38 | 23.56745 | -109.65464 | 7574 ft | 272 kts | 200° |
| 2026-04-25 20:38 | 23.54954 | -109.66122 | 7213 ft | 271 kts | 200° |
| 2026-04-25 20:38 | 23.53161 | -109.66782 | 6858 ft | 269 kts | 200° |
| 2026-04-25 20:38 | 23.51414 | -109.67425 | 6517 ft | 264 kts | 200° |
| 2026-04-25 20:39 | 23.49712 | -109.68050 | 6172 ft | 249 kts | 200° |
| 2026-04-25 20:39 | 23.48105 | -109.68639 | 5857 ft | 237 kts | 200° |
| 2026-04-25 20:39 | 23.46578 | -109.69199 | 5545 ft | 227 kts | 200° |
| 2026-04-25 20:39 | 23.45588 | -109.69563 | 5350 ft | 220 kts | 200° |
| 2026-04-25 20:40 | 23.43706 | -109.70253 | 4974 ft | 208 kts | 200° |
| 2026-04-25 20:40 | 23.42361 | -109.70747 | 4704 ft | 201 kts | 200° |
| 2026-04-25 20:40 | 23.41039 | -109.71233 | 4436 ft | 199 kts | 200° |
| 2026-04-25 20:40 | 23.39715 | -109.71719 | 4172 ft | 201 kts | 200° |
| 2026-04-25 20:41 | 23.38394 | -109.72206 | 3913 ft | 200 kts | 199° |
| 2026-04-25 20:41 | 23.37070 | -109.72692 | 3649 ft | 200 kts | 199° |
| 2026-04-25 20:41 | 23.35760 | -109.73174 | 3383 ft | 199 kts | 199° |
| 2026-04-25 20:41 | 23.34458 | -109.73652 | 3125 ft | 197 kts | 199° |
| 2026-04-25 20:42 | 23.33131 | -109.74068 | 2889 ft | 194 kts | 186° |
| 2026-04-25 20:42 | 23.31785 | -109.73994 | 2879 ft | 194 kts | 172° |
| 2026-04-25 20:42 | 23.30449 | -109.73815 | 2877 ft | 192 kts | 173° |
| 2026-04-25 20:42 | 23.29114 | -109.73658 | 2792 ft | 195 kts | 173° |
| 2026-04-25 20:43 | 23.27776 | -109.73506 | 2497 ft | 183 kts | 173° |
| 2026-04-25 20:43 | 23.26599 | -109.73373 | 2324 ft | 159 kts | 172° |
| 2026-04-25 20:43 | 23.25553 | -109.73255 | 2104 ft | 142 kts | 172° |
| 2026-04-25 20:43 | 23.24598 | -109.73146 | 1940 ft | 136 kts | 172° |
| 2026-04-25 20:44 | 23.23671 | -109.73032 | 1780 ft | 135 kts | 171° |
| 2026-04-25 20:44 | 23.22730 | -109.72905 | 1623 ft | 134 kts | 172° |
| 2026-04-25 20:44 | 23.21812 | -109.72815 | 1464 ft | 133 kts | 173° |
| 2026-04-25 20:44 | 23.20896 | -109.72697 | 1295 ft | 132 kts | 171° |
| 2026-04-25 20:45 | 23.19985 | -109.72610 | 1120 ft | 131 kts | 175° |
| 2026-04-25 20:45 | 23.19076 | -109.72526 | 943 ft | 130 kts | 172° |
| 2026-04-25 20:45 | 23.18167 | -109.72416 | 733 ft | 129 kts | 172° |
| 2026-04-25 20:45 | 23.17288 | -109.72319 | 544 ft | 127 kts | 172° |
| 2026-04-25 20:46 | 23.16408 | -109.72218 | 408 ft | 123 kts | 173° |
| 2026-04-25 20:46 | 23.15648 | -109.72130 | 376 ft | 92 kts | 175° |
| 2026-04-25 20:46 | 23.15203 | -109.72076 | 365 ft | 37 kts | 174° |
| 2026-04-25 20:46 | 23.14970 | -109.72049 | 359 ft | 35 kts | 173° |
| 2026-04-25 20:47 | 23.14717 | -109.72013 | 351 ft | 27 kts | 167° |
| 2026-04-25 20:47 | 23.14592 | -109.71946 | 345 ft | 21 kts | 144° |
| 2026-04-25 20:47 | 23.14492 | -109.71868 | 340 ft | 8 kts | 144° |
| 2026-04-25 20:47 | 23.14476 | -109.71798 | 338 ft | 14 kts | 27° |
| 2026-04-25 20:48 | 23.14589 | -109.71806 | 342 ft | 18 kts | 354° |
| 2026-04-25 20:48 | 23.14741 | -109.71820 | 347 ft | 25 kts | 354° |
| 2026-04-25 20:48 | 23.14930 | -109.71841 | 353 ft | 21 kts | 355° |
| 2026-04-25 20:48 | 23.15083 | -109.71856 | 358 ft | 22 kts | 354° |
| 2026-04-25 20:49 | 23.15244 | -109.71873 | 362 ft | 23 kts | 355° |
| 2026-04-25 20:49 | 23.15414 | -109.71890 | 366 ft | 25 kts | 354° |
| 2026-04-25 20:49 | 23.15595 | -109.71908 | 370 ft | 27 kts | 354° |
| 2026-04-25 20:49 | 23.15791 | -109.71927 | 374 ft | 28 kts | 354° |
| 2026-04-25 20:50 | 23.15979 | -109.71948 | 377 ft | 25 kts | 354° |
| 2026-04-25 20:50 | 23.16165 | -109.71967 | 379 ft | 28 kts | 354° |
| 2026-04-25 20:50 | 23.16357 | -109.71985 | 381 ft | 15 kts | 354° |
| 2026-04-25 20:50 | 23.16435 | -109.71987 | 382 ft | 5 kts | 85° |
| 2026-04-25 20:51 | 23.16389 | -109.71982 | 382 ft | 9 kts | 185° |
| 2026-04-25 20:51 | 23.16299 | -109.71980 | 381 ft | 15 kts | 160° |
| 2026-04-25 20:51 | 23.16291 | -109.71902 | 380 ft | 12 kts | 35° |
| 2026-04-25 20:51 | 23.16380 | -109.71905 | 380 ft | 14 kts | 352° |
| 2026-04-25 20:52 | 23.16444 | -109.71905 | 381 ft | 3 kts | 75° |
| 2026-04-25 20:52 | 23.16447 | -109.71878 | 380 ft | 5 kts | 85° |
| 2026-04-25 20:52 | 23.16458 | -109.71860 | 380 ft | 5 kts | 327° |
| 2026-04-25 20:52 | 23.16460 | -109.71874 | 381 ft | 3 kts | 275° |
| 2026-04-25 20:53 | 23.16481 | -109.71885 | 381 ft | 0 kts | 354° |